sensor_id;sensor_type;location;lat;lon;timestamp;temperature;humidity
66013;DHT22;52783;50.502;8.190;2022-12-29T00:00:06;10.20;99.90
66013;DHT22;52783;50.502;8.190;2022-12-29T00:02:32;10.20;99.90
66013;DHT22;52783;50.502;8.190;2022-12-29T00:04:58;10.30;99.90
66013;DHT22;52783;50.502;8.190;2022-12-29T00:07:23;10.30;99.90
66013;DHT22;52783;50.502;8.190;2022-12-29T00:09:49;10.30;99.90
66013;DHT22;52783;50.502;8.190;2022-12-29T00:12:14;10.30;99.90
66013;DHT22;52783;50.502;8.190;2022-12-29T00:14:40;10.30;99.90
66013;DHT22;52783;50.502;8.190;2022-12-29T00:17:24;10.30;99.90
66013;DHT22;52783;50.502;8.190;2022-12-29T00:19:50;10.40;99.90
66013;DHT22;52783;50.502;8.190;2022-12-29T00:22:34;10.40;99.90
66013;DHT22;52783;50.502;8.190;2022-12-29T00:25:18;10.40;99.90
66013;DHT22;52783;50.502;8.190;2022-12-29T00:28:04;10.30;99.90
66013;DHT22;52783;50.502;8.190;2022-12-29T00:30:48;10.20;99.90
66013;DHT22;52783;50.502;8.190;2022-12-29T00:33:33;10.20;99.90
66013;DHT22;52783;50.502;8.190;2022-12-29T00:36:31;10.10;99.90
66013;DHT22;52783;50.502;8.190;2022-12-29T00:39:05;10.10;99.90
66013;DHT22;52783;50.502;8.190;2022-12-29T00:41:50;10.10;99.90
66013;DHT22;52783;50.502;8.190;2022-12-29T00:44:34;10.00;99.90
66013;DHT22;52783;50.502;8.190;2022-12-29T00:47:00;10.00;99.90
66013;DHT22;52783;50.502;8.190;2022-12-29T00:49:30;9.90;99.90
66013;DHT22;52783;50.502;8.190;2022-12-29T00:52:01;9.90;99.90
66013;DHT22;52783;50.502;8.190;2022-12-29T00:54:31;9.90;99.90
66013;DHT22;52783;50.502;8.190;2022-12-29T00:56:57;9.80;99.90
66013;DHT22;52783;50.502;8.190;2022-12-29T00:59:23;9.80;99.90
66013;DHT22;52783;50.502;8.190;2022-12-29T01:01:50;9.70;99.90
66013;DHT22;52783;50.502;8.190;2022-12-29T01:04:16;9.70;99.90
66013;DHT22;52783;50.502;8.190;2022-12-29T01:06:42;9.70;99.90
66013;DHT22;52783;50.502;8.190;2022-12-29T01:09:08;9.60;99.90
66013;DHT22;52783;50.502;8.190;2022-12-29T01:11:54;9.60;99.90
66013;DHT22;52783;50.502;8.190;2022-12-29T01:14:20;9.60;99.90
66013;DHT22;52783;50.502;8.190;2022-12-29T01:16:46;9.60;99.90
66013;DHT22;52783;50.502;8.190;2022-12-29T01:19:12;9.60;99.90
66013;DHT22;52783;50.502;8.190;2022-12-29T01:21:38;9.60;99.90
66013;DHT22;52783;50.502;8.190;2022-12-29T01:24:03;9.60;99.90
66013;DHT22;52783;50.502;8.190;2022-12-29T01:26:29;9.60;99.90
66013;DHT22;52783;50.502;8.190;2022-12-29T01:28:55;9.60;99.90
66013;DHT22;52783;50.502;8.190;2022-12-29T01:31:20;9.60;99.90
66013;DHT22;52783;50.502;8.190;2022-12-29T01:33:46;9.60;99.90
66013;DHT22;52783;50.502;8.190;2022-12-29T01:36:14;9.60;99.90
66013;DHT22;52783;50.502;8.190;2022-12-29T01:38:40;9.60;99.90
66013;DHT22;52783;50.502;8.190;2022-12-29T01:41:07;9.70;99.90
66013;DHT22;52783;50.502;8.190;2022-12-29T01:43:44;9.60;99.90
66013;DHT22;52783;50.502;8.190;2022-12-29T01:46:40;9.70;99.90
66013;DHT22;52783;50.502;8.190;2022-12-29T01:49:15;9.60;99.90
66013;DHT22;52783;50.502;8.190;2022-12-29T01:51:51;9.60;99.90
66013;DHT22;52783;50.502;8.190;2022-12-29T01:54:24;9.70;99.90
66013;DHT22;52783;50.502;8.190;2022-12-29T01:56:51;9.70;99.90
66013;DHT22;52783;50.502;8.190;2022-12-29T01:59:21;9.60;99.90
66013;DHT22;52783;50.502;8.190;2022-12-29T02:01:48;9.60;99.90
66013;DHT22;52783;50.502;8.190;2022-12-29T02:04:14;9.60;99.90
66013;DHT22;52783;50.502;8.190;2022-12-29T02:06:51;9.60;99.90
66013;DHT22;52783;50.502;8.190;2022-12-29T02:09:18;9.60;99.90
66013;DHT22;52783;50.502;8.190;2022-12-29T02:11:44;9.50;99.90
66013;DHT22;52783;50.502;8.190;2022-12-29T02:14:11;9.50;99.90
66013;DHT22;52783;50.502;8.190;2022-12-29T02:17:07;9.50;99.90
66013;DHT22;52783;50.502;8.190;2022-12-29T02:20:04;9.50;99.90
66013;DHT22;52783;50.502;8.190;2022-12-29T02:30:58;9.50;99.90
66013;DHT22;52783;50.502;8.190;2022-12-29T02:33:54;9.40;99.90
66013;DHT22;52783;50.502;8.190;2022-12-29T02:36:44;9.40;99.90
66013;DHT22;52783;50.502;8.190;2022-12-29T02:39:34;9.50;99.90
66013;DHT22;52783;50.502;8.190;2022-12-29T02:44:52;9.50;99.90
66013;DHT22;52783;50.502;8.190;2022-12-29T02:50:08;9.40;99.90
66013;DHT22;52783;50.502;8.190;2022-12-29T02:52:35;9.40;99.90
66013;DHT22;52783;50.502;8.190;2022-12-29T02:55:03;9.30;99.90
66013;DHT22;52783;50.502;8.190;2022-12-29T02:57:32;9.30;99.90
66013;DHT22;52783;50.502;8.190;2022-12-29T03:00:04;9.30;99.90
66013;DHT22;52783;50.502;8.190;2022-12-29T03:02:59;9.30;99.90
66013;DHT22;52783;50.502;8.190;2022-12-29T03:11:02;9.20;99.90
66013;DHT22;52783;50.502;8.190;2022-12-29T03:13:44;9.20;99.90
66013;DHT22;52783;50.502;8.190;2022-12-29T03:16:50;9.20;99.90
66013;DHT22;52783;50.502;8.190;2022-12-29T03:19:44;9.20;99.90
66013;DHT22;52783;50.502;8.190;2022-12-29T03:22:09;9.20;99.90
66013;DHT22;52783;50.502;8.190;2022-12-29T03:25:03;9.20;99.90
66013;DHT22;52783;50.502;8.190;2022-12-29T03:27:39;9.10;99.90
66013;DHT22;52783;50.502;8.190;2022-12-29T03:30:07;9.10;99.90
66013;DHT22;52783;50.502;8.190;2022-12-29T03:32:38;9.10;99.90
66013;DHT22;52783;50.502;8.190;2022-12-29T03:35:08;9.10;99.90
66013;DHT22;52783;50.502;8.190;2022-12-29T03:37:38;9.20;99.90
66013;DHT22;52783;50.502;8.190;2022-12-29T03:40:05;9.10;99.90
66013;DHT22;52783;50.502;8.190;2022-12-29T03:42:32;9.10;99.90
66013;DHT22;52783;50.502;8.190;2022-12-29T03:44:59;9.10;99.90
66013;DHT22;52783;50.502;8.190;2022-12-29T03:47:25;9.10;99.90
66013;DHT22;52783;50.502;8.190;2022-12-29T03:49:52;9.20;99.90
66013;DHT22;52783;50.502;8.190;2022-12-29T03:52:18;9.10;99.90
66013;DHT22;52783;50.502;8.190;2022-12-29T03:54:44;9.20;99.90
66013;DHT22;52783;50.502;8.190;2022-12-29T03:57:10;9.10;99.90
66013;DHT22;52783;50.502;8.190;2022-12-29T03:59:36;9.20;99.90
66013;DHT22;52783;50.502;8.190;2022-12-29T04:02:02;9.20;99.90
66013;DHT22;52783;50.502;8.190;2022-12-29T04:04:27;9.20;99.90
66013;DHT22;52783;50.502;8.190;2022-12-29T04:06:53;9.20;99.90
66013;DHT22;52783;50.502;8.190;2022-12-29T04:09:18;9.30;99.90
66013;DHT22;52783;50.502;8.190;2022-12-29T04:11:44;9.30;99.90
66013;DHT22;52783;50.502;8.190;2022-12-29T04:14:09;9.30;99.90
66013;DHT22;52783;50.502;8.190;2022-12-29T04:16:35;9.30;99.90
66013;DHT22;52783;50.502;8.190;2022-12-29T04:19:02;9.30;99.90
66013;DHT22;52783;50.502;8.190;2022-12-29T04:21:27;9.40;99.90
66013;DHT22;52783;50.502;8.190;2022-12-29T04:23:53;9.40;99.90
66013;DHT22;52783;50.502;8.190;2022-12-29T04:26:18;9.40;99.90
66013;DHT22;52783;50.502;8.190;2022-12-29T04:28:44;9.30;99.90
66013;DHT22;52783;50.502;8.190;2022-12-29T04:31:09;9.30;99.90
66013;DHT22;52783;50.502;8.190;2022-12-29T04:33:35;9.40;99.90
66013;DHT22;52783;50.502;8.190;2022-12-29T04:36:01;9.40;99.90
66013;DHT22;52783;50.502;8.190;2022-12-29T04:38:26;9.40;99.90
66013;DHT22;52783;50.502;8.190;2022-12-29T04:40:52;9.40;99.90
66013;DHT22;52783;50.502;8.190;2022-12-29T04:43:18;9.40;99.90
66013;DHT22;52783;50.502;8.190;2022-12-29T04:45:45;9.40;99.90
66013;DHT22;52783;50.502;8.190;2022-12-29T04:48:11;9.40;99.90
66013;DHT22;52783;50.502;8.190;2022-12-29T04:50:36;9.40;99.90
66013;DHT22;52783;50.502;8.190;2022-12-29T04:53:02;9.40;99.90
66013;DHT22;52783;50.502;8.190;2022-12-29T04:55:30;9.40;99.90
66013;DHT22;52783;50.502;8.190;2022-12-29T04:57:56;9.40;99.90
66013;DHT22;52783;50.502;8.190;2022-12-29T05:00:21;9.40;99.90
66013;DHT22;52783;50.502;8.190;2022-12-29T05:02:47;9.40;99.90
66013;DHT22;52783;50.502;8.190;2022-12-29T05:05:13;9.50;99.90
66013;DHT22;52783;50.502;8.190;2022-12-29T05:07:38;9.40;99.90
66013;DHT22;52783;50.502;8.190;2022-12-29T05:10:05;9.40;99.90
66013;DHT22;52783;50.502;8.190;2022-12-29T05:12:31;9.40;99.90
66013;DHT22;52783;50.502;8.190;2022-12-29T05:14:58;9.40;99.90
66013;DHT22;52783;50.502;8.190;2022-12-29T05:17:23;9.40;99.90
66013;DHT22;52783;50.502;8.190;2022-12-29T05:19:49;9.40;99.90
66013;DHT22;52783;50.502;8.190;2022-12-29T05:22:14;9.40;99.90
66013;DHT22;52783;50.502;8.190;2022-12-29T05:24:40;9.40;99.90
66013;DHT22;52783;50.502;8.190;2022-12-29T05:27:05;9.40;99.90
66013;DHT22;52783;50.502;8.190;2022-12-29T05:29:31;9.40;99.90
66013;DHT22;52783;50.502;8.190;2022-12-29T05:31:57;9.40;99.90
66013;DHT22;52783;50.502;8.190;2022-12-29T05:34:22;9.40;99.90
66013;DHT22;52783;50.502;8.190;2022-12-29T05:36:48;9.40;99.90
66013;DHT22;52783;50.502;8.190;2022-12-29T05:39:14;9.50;99.90
66013;DHT22;52783;50.502;8.190;2022-12-29T05:41:39;9.50;99.90
66013;DHT22;52783;50.502;8.190;2022-12-29T05:44:05;9.50;99.90
66013;DHT22;52783;50.502;8.190;2022-12-29T05:46:30;9.50;99.90
66013;DHT22;52783;50.502;8.190;2022-12-29T05:48:56;9.50;99.90
66013;DHT22;52783;50.502;8.190;2022-12-29T05:51:21;9.50;99.90
66013;DHT22;52783;50.502;8.190;2022-12-29T05:53:47;9.50;99.90
66013;DHT22;52783;50.502;8.190;2022-12-29T05:56:12;9.50;99.90
66013;DHT22;52783;50.502;8.190;2022-12-29T05:58:38;9.50;99.90
66013;DHT22;52783;50.502;8.190;2022-12-29T06:01:04;9.50;99.90
66013;DHT22;52783;50.502;8.190;2022-12-29T06:03:29;9.50;99.90
66013;DHT22;52783;50.502;8.190;2022-12-29T06:05:55;9.60;99.90
66013;DHT22;52783;50.502;8.190;2022-12-29T06:08:20;9.50;99.90
66013;DHT22;52783;50.502;8.190;2022-12-29T06:10:46;9.60;99.90
66013;DHT22;52783;50.502;8.190;2022-12-29T06:13:11;9.60;99.90
66013;DHT22;52783;50.502;8.190;2022-12-29T06:15:37;9.60;99.90
66013;DHT22;52783;50.502;8.190;2022-12-29T06:18:03;9.60;99.90
66013;DHT22;52783;50.502;8.190;2022-12-29T06:20:28;9.60;99.90
66013;DHT22;52783;50.502;8.190;2022-12-29T06:22:54;9.60;99.90
66013;DHT22;52783;50.502;8.190;2022-12-29T06:25:19;9.60;99.90
66013;DHT22;52783;50.502;8.190;2022-12-29T06:27:45;9.60;99.90
66013;DHT22;52783;50.502;8.190;2022-12-29T06:30:11;9.60;99.90
66013;DHT22;52783;50.502;8.190;2022-12-29T06:32:37;9.60;99.90
66013;DHT22;52783;50.502;8.190;2022-12-29T06:35:03;9.60;99.90
66013;DHT22;52783;50.502;8.190;2022-12-29T06:37:29;9.60;99.90
66013;DHT22;52783;50.502;8.190;2022-12-29T06:39:55;9.60;99.90
66013;DHT22;52783;50.502;8.190;2022-12-29T06:42:20;9.60;99.90
66013;DHT22;52783;50.502;8.190;2022-12-29T06:44:46;9.60;99.90
66013;DHT22;52783;50.502;8.190;2022-12-29T06:47:11;9.60;99.90
66013;DHT22;52783;50.502;8.190;2022-12-29T06:49:37;9.70;99.90
66013;DHT22;52783;50.502;8.190;2022-12-29T06:52:03;9.70;99.90
66013;DHT22;52783;50.502;8.190;2022-12-29T06:54:32;9.70;99.90
66013;DHT22;52783;50.502;8.190;2022-12-29T06:56:57;9.70;99.90
66013;DHT22;52783;50.502;8.190;2022-12-29T06:59:23;9.70;99.90
66013;DHT22;52783;50.502;8.190;2022-12-29T07:01:51;9.70;99.90
66013;DHT22;52783;50.502;8.190;2022-12-29T07:04:16;9.70;99.90
66013;DHT22;52783;50.502;8.190;2022-12-29T07:06:42;9.70;99.90
66013;DHT22;52783;50.502;8.190;2022-12-29T07:09:08;9.70;99.90
66013;DHT22;52783;50.502;8.190;2022-12-29T07:11:35;9.70;99.90
66013;DHT22;52783;50.502;8.190;2022-12-29T07:14:01;9.70;99.90
66013;DHT22;52783;50.502;8.190;2022-12-29T07:16:27;9.70;99.90
66013;DHT22;52783;50.502;8.190;2022-12-29T07:18:54;9.70;99.90
66013;DHT22;52783;50.502;8.190;2022-12-29T07:21:20;9.70;99.90
66013;DHT22;52783;50.502;8.190;2022-12-29T07:23:46;9.70;99.90
66013;DHT22;52783;50.502;8.190;2022-12-29T07:26:13;9.70;99.90
66013;DHT22;52783;50.502;8.190;2022-12-29T07:28:39;9.70;99.90
66013;DHT22;52783;50.502;8.190;2022-12-29T07:31:06;9.70;99.90
66013;DHT22;52783;50.502;8.190;2022-12-29T07:33:32;9.70;99.90
66013;DHT22;52783;50.502;8.190;2022-12-29T07:35:59;9.70;99.90
66013;DHT22;52783;50.502;8.190;2022-12-29T07:38:25;9.70;99.90
66013;DHT22;52783;50.502;8.190;2022-12-29T07:40:50;9.70;99.90
66013;DHT22;52783;50.502;8.190;2022-12-29T07:43:16;9.70;99.90
66013;DHT22;52783;50.502;8.190;2022-12-29T07:45:41;9.70;99.90
66013;DHT22;52783;50.502;8.190;2022-12-29T07:48:07;9.70;99.90
66013;DHT22;52783;50.502;8.190;2022-12-29T07:50:34;9.80;99.90
66013;DHT22;52783;50.502;8.190;2022-12-29T07:53:00;9.80;99.90
66013;DHT22;52783;50.502;8.190;2022-12-29T07:55:25;9.80;99.90
66013;DHT22;52783;50.502;8.190;2022-12-29T07:57:55;9.80;99.90
66013;DHT22;52783;50.502;8.190;2022-12-29T08:00:21;9.80;99.90
66013;DHT22;52783;50.502;8.190;2022-12-29T08:02:47;9.70;99.90
66013;DHT22;52783;50.502;8.190;2022-12-29T08:05:12;9.70;99.90
66013;DHT22;52783;50.502;8.190;2022-12-29T08:07:38;9.60;99.90
66013;DHT22;52783;50.502;8.190;2022-12-29T08:10:04;9.70;99.90
66013;DHT22;52783;50.502;8.190;2022-12-29T08:12:30;9.70;99.90
66013;DHT22;52783;50.502;8.190;2022-12-29T08:14:55;9.70;99.90
66013;DHT22;52783;50.502;8.190;2022-12-29T08:17:21;9.70;99.90
66013;DHT22;52783;50.502;8.190;2022-12-29T08:19:46;9.60;99.90
66013;DHT22;52783;50.502;8.190;2022-12-29T08:22:13;9.70;99.90
66013;DHT22;52783;50.502;8.190;2022-12-29T08:24:39;9.70;99.90
66013;DHT22;52783;50.502;8.190;2022-12-29T08:27:04;9.80;99.90
66013;DHT22;52783;50.502;8.190;2022-12-29T08:29:30;9.80;99.90
66013;DHT22;52783;50.502;8.190;2022-12-29T08:31:55;9.90;99.90
66013;DHT22;52783;50.502;8.190;2022-12-29T08:34:21;9.90;99.90
66013;DHT22;52783;50.502;8.190;2022-12-29T08:36:47;9.80;99.90
66013;DHT22;52783;50.502;8.190;2022-12-29T08:39:12;9.80;99.90
66013;DHT22;52783;50.502;8.190;2022-12-29T08:41:38;9.90;99.90
66013;DHT22;52783;50.502;8.190;2022-12-29T08:44:04;9.80;99.90
66013;DHT22;52783;50.502;8.190;2022-12-29T08:46:29;9.90;99.90
66013;DHT22;52783;50.502;8.190;2022-12-29T08:48:55;9.80;99.90
66013;DHT22;52783;50.502;8.190;2022-12-29T08:51:20;9.90;99.90
66013;DHT22;52783;50.502;8.190;2022-12-29T08:53:46;9.90;99.90
66013;DHT22;52783;50.502;8.190;2022-12-29T08:56:11;9.90;99.90
66013;DHT22;52783;50.502;8.190;2022-12-29T08:58:37;9.90;99.90
66013;DHT22;52783;50.502;8.190;2022-12-29T09:01:03;9.90;99.90
66013;DHT22;52783;50.502;8.190;2022-12-29T09:03:28;10.00;99.90
66013;DHT22;52783;50.502;8.190;2022-12-29T09:05:55;10.00;99.90
66013;DHT22;52783;50.502;8.190;2022-12-29T09:08:22;10.00;99.90
66013;DHT22;52783;50.502;8.190;2022-12-29T09:10:48;10.10;99.90
66013;DHT22;52783;50.502;8.190;2022-12-29T09:13:14;10.00;99.90
66013;DHT22;52783;50.502;8.190;2022-12-29T09:15:39;10.00;99.90
66013;DHT22;52783;50.502;8.190;2022-12-29T09:18:06;10.00;99.90
66013;DHT22;52783;50.502;8.190;2022-12-29T09:20:33;10.10;99.90
66013;DHT22;52783;50.502;8.190;2022-12-29T09:22:59;10.10;99.90
66013;DHT22;52783;50.502;8.190;2022-12-29T09:25:25;10.10;99.90
66013;DHT22;52783;50.502;8.190;2022-12-29T09:27:51;10.10;99.90
66013;DHT22;52783;50.502;8.190;2022-12-29T09:30:19;10.20;99.90
66013;DHT22;52783;50.502;8.190;2022-12-29T09:32:45;10.20;99.90
66013;DHT22;52783;50.502;8.190;2022-12-29T09:35:11;10.20;99.90
66013;DHT22;52783;50.502;8.190;2022-12-29T09:37:37;10.30;99.90
66013;DHT22;52783;50.502;8.190;2022-12-29T09:40:04;10.30;99.90
66013;DHT22;52783;50.502;8.190;2022-12-29T09:42:55;10.30;99.90
66013;DHT22;52783;50.502;8.190;2022-12-29T09:45:36;10.30;99.90
66013;DHT22;52783;50.502;8.190;2022-12-29T09:48:14;10.30;99.90
66013;DHT22;52783;50.502;8.190;2022-12-29T09:50:44;10.40;99.90
66013;DHT22;52783;50.502;8.190;2022-12-29T09:53:22;10.40;99.90
66013;DHT22;52783;50.502;8.190;2022-12-29T09:55:56;10.40;99.90
66013;DHT22;52783;50.502;8.190;2022-12-29T10:02:11;10.40;99.90
66013;DHT22;52783;50.502;8.190;2022-12-29T10:04:12;10.30;99.90
66013;DHT22;52783;50.502;8.190;2022-12-29T10:06:45;10.30;99.90
66013;DHT22;52783;50.502;8.190;2022-12-29T10:14:54;10.30;99.90
66013;DHT22;52783;50.502;8.190;2022-12-29T10:25:19;10.20;99.90
66013;DHT22;52783;50.502;8.190;2022-12-29T10:27:48;10.20;99.90
66013;DHT22;52783;50.502;8.190;2022-12-29T10:30:14;10.10;99.90
66013;DHT22;52783;50.502;8.190;2022-12-29T10:33:01;10.10;99.90
66013;DHT22;52783;50.502;8.190;2022-12-29T10:35:36;10.10;99.90
66013;DHT22;52783;50.502;8.190;2022-12-29T10:38:28;10.10;99.90
66013;DHT22;52783;50.502;8.190;2022-12-29T10:41:04;10.10;99.90
66013;DHT22;52783;50.502;8.190;2022-12-29T10:43:34;10.00;99.90
66013;DHT22;52783;50.502;8.190;2022-12-29T10:46:07;10.00;99.90
66013;DHT22;52783;50.502;8.190;2022-12-29T10:48:35;10.10;99.90
66013;DHT22;52783;50.502;8.190;2022-12-29T10:51:09;10.10;99.90
66013;DHT22;52783;50.502;8.190;2022-12-29T10:53:42;10.20;99.90
66013;DHT22;52783;50.502;8.190;2022-12-29T10:56:30;10.20;99.90
66013;DHT22;52783;50.502;8.190;2022-12-29T10:59:01;10.30;99.90
66013;DHT22;52783;50.502;8.190;2022-12-29T11:01:35;10.20;99.90
66013;DHT22;52783;50.502;8.190;2022-12-29T11:07:07;10.10;99.90
66013;DHT22;52783;50.502;8.190;2022-12-29T11:09:36;10.10;99.90
66013;DHT22;52783;50.502;8.190;2022-12-29T11:14:46;10.10;99.90
66013;DHT22;52783;50.502;8.190;2022-12-29T11:17:16;10.00;99.90
66013;DHT22;52783;50.502;8.190;2022-12-29T11:19:42;10.00;99.90
66013;DHT22;52783;50.502;8.190;2022-12-29T11:22:21;10.10;99.90
66013;DHT22;52783;50.502;8.190;2022-12-29T11:24:48;10.00;99.90
66013;DHT22;52783;50.502;8.190;2022-12-29T11:27:21;10.10;99.90
66013;DHT22;52783;50.502;8.190;2022-12-29T11:29:52;10.10;99.90
66013;DHT22;52783;50.502;8.190;2022-12-29T11:32:21;10.10;99.90
66013;DHT22;52783;50.502;8.190;2022-12-29T11:34:47;10.10;99.90
66013;DHT22;52783;50.502;8.190;2022-12-29T11:37:17;10.10;99.90
66013;DHT22;52783;50.502;8.190;2022-12-29T11:40:03;10.10;99.90
66013;DHT22;52783;50.502;8.190;2022-12-29T11:42:36;10.20;99.90
66013;DHT22;52783;50.502;8.190;2022-12-29T11:45:06;10.10;99.90
66013;DHT22;52783;50.502;8.190;2022-12-29T11:47:38;10.10;99.90
66013;DHT22;52783;50.502;8.190;2022-12-29T11:50:06;10.00;99.90
66013;DHT22;52783;50.502;8.190;2022-12-29T11:52:35;10.10;99.90
66013;DHT22;52783;50.502;8.190;2022-12-29T11:55:04;10.20;99.90
66013;DHT22;52783;50.502;8.190;2022-12-29T11:57:33;10.30;99.90
66013;DHT22;52783;50.502;8.190;2022-12-29T12:00:02;10.30;99.90
66013;DHT22;52783;50.502;8.190;2022-12-29T12:02:45;10.30;99.90
66013;DHT22;52783;50.502;8.190;2022-12-29T12:08:17;10.40;99.90
66013;DHT22;52783;50.502;8.190;2022-12-29T12:13:19;10.40;99.90
66013;DHT22;52783;50.502;8.190;2022-12-29T12:18:48;10.40;99.90
66013;DHT22;52783;50.502;8.190;2022-12-29T12:27:00;10.30;99.90
66013;DHT22;52783;50.502;8.190;2022-12-29T12:29:50;10.20;99.90
66013;DHT22;52783;50.502;8.190;2022-12-29T12:32:35;10.30;99.90
66013;DHT22;52783;50.502;8.190;2022-12-29T12:35:13;10.30;99.90
66013;DHT22;52783;50.502;8.190;2022-12-29T12:49:29;10.40;99.90
66013;DHT22;52783;50.502;8.190;2022-12-29T12:52:21;10.40;99.90
66013;DHT22;52783;50.502;8.190;2022-12-29T12:55:06;10.40;99.90
66013;DHT22;52783;50.502;8.190;2022-12-29T13:00:15;10.40;99.90
66013;DHT22;52783;50.502;8.190;2022-12-29T13:11:40;10.40;99.90
66013;DHT22;52783;50.502;8.190;2022-12-29T13:20:03;10.40;99.90
66013;DHT22;52783;50.502;8.190;2022-12-29T13:22:41;10.40;99.90
66013;DHT22;52783;50.502;8.190;2022-12-29T13:25:35;10.40;99.90
66013;DHT22;52783;50.502;8.190;2022-12-29T13:31:00;10.40;99.90
66013;DHT22;52783;50.502;8.190;2022-12-29T13:36:21;10.40;99.90
66013;DHT22;52783;50.502;8.190;2022-12-29T13:38:51;10.40;99.90
66013;DHT22;52783;50.502;8.190;2022-12-29T13:41:30;10.40;99.90
66013;DHT22;52783;50.502;8.190;2022-12-29T13:43:58;10.40;99.80
66013;DHT22;52783;50.502;8.190;2022-12-29T13:46:29;10.40;99.70
66013;DHT22;52783;50.502;8.190;2022-12-29T13:49:08;10.40;97.90
66013;DHT22;52783;50.502;8.190;2022-12-29T13:51:42;10.50;98.20
66013;DHT22;52783;50.502;8.190;2022-12-29T13:54:56;10.50;97.90
66013;DHT22;52783;50.502;8.190;2022-12-29T13:57:38;10.50;97.60
66013;DHT22;52783;50.502;8.190;2022-12-29T14:00:18;10.40;97.40
66013;DHT22;52783;50.502;8.190;2022-12-29T14:07:49;10.40;96.40
66013;DHT22;52783;50.502;8.190;2022-12-29T14:10:46;10.30;96.60
66013;DHT22;52783;50.502;8.190;2022-12-29T14:13:19;10.20;97.20
66013;DHT22;52783;50.502;8.190;2022-12-29T14:15:57;10.20;97.60
66013;DHT22;52783;50.502;8.190;2022-12-29T14:18:26;10.10;98.00
66013;DHT22;52783;50.502;8.190;2022-12-29T14:20:57;10.00;97.00
66013;DHT22;52783;50.502;8.190;2022-12-29T14:31:02;9.90;96.20
66013;DHT22;52783;50.502;8.190;2022-12-29T14:33:32;9.80;96.30
66013;DHT22;52783;50.502;8.190;2022-12-29T14:45:06;9.80;97.00
66013;DHT22;52783;50.502;8.190;2022-12-29T14:47:39;9.90;97.10
66013;DHT22;52783;50.502;8.190;2022-12-29T14:50:38;9.90;97.60
66013;DHT22;52783;50.502;8.190;2022-12-29T14:53:06;9.90;97.80
66013;DHT22;52783;50.502;8.190;2022-12-29T14:55:44;9.90;98.20
66013;DHT22;52783;50.502;8.190;2022-12-29T14:58:46;9.90;98.70
66013;DHT22;52783;50.502;8.190;2022-12-29T15:04:03;9.90;98.70
66013;DHT22;52783;50.502;8.190;2022-12-29T15:06:30;9.80;98.70
66013;DHT22;52783;50.502;8.190;2022-12-29T15:09:15;9.80;97.80
66013;DHT22;52783;50.502;8.190;2022-12-29T15:11:57;9.80;97.20
66013;DHT22;52783;50.502;8.190;2022-12-29T15:14:35;9.80;97.90
66013;DHT22;52783;50.502;8.190;2022-12-29T15:17:02;9.80;97.90
66013;DHT22;52783;50.502;8.190;2022-12-29T15:19:34;9.80;97.80
66013;DHT22;52783;50.502;8.190;2022-12-29T15:22:02;9.90;98.00
66013;DHT22;52783;50.502;8.190;2022-12-29T15:24:28;9.80;97.90
66013;DHT22;52783;50.502;8.190;2022-12-29T15:26:54;9.80;97.40
66013;DHT22;52783;50.502;8.190;2022-12-29T15:29:39;9.70;98.30
66013;DHT22;52783;50.502;8.190;2022-12-29T15:34:40;9.60;98.40
66013;DHT22;52783;50.502;8.190;2022-12-29T15:37:06;9.50;98.30
66013;DHT22;52783;50.502;8.190;2022-12-29T15:39:32;9.40;98.40
66013;DHT22;52783;50.502;8.190;2022-12-29T15:44:43;9.30;98.20
66013;DHT22;52783;50.502;8.190;2022-12-29T15:47:21;9.30;98.30
66013;DHT22;52783;50.502;8.190;2022-12-29T15:49:49;9.20;97.30
66013;DHT22;52783;50.502;8.190;2022-12-29T15:52:22;9.20;96.70
66013;DHT22;52783;50.502;8.190;2022-12-29T15:54:51;9.20;96.70
66013;DHT22;52783;50.502;8.190;2022-12-29T15:57:23;9.20;96.40
66013;DHT22;52783;50.502;8.190;2022-12-29T15:59:49;9.10;96.40
66013;DHT22;52783;50.502;8.190;2022-12-29T16:02:15;9.10;96.30
66013;DHT22;52783;50.502;8.190;2022-12-29T16:04:41;9.10;96.80
66013;DHT22;52783;50.502;8.190;2022-12-29T16:07:28;9.00;96.60
66013;DHT22;52783;50.502;8.190;2022-12-29T16:10:03;9.00;96.40
66013;DHT22;52783;50.502;8.190;2022-12-29T16:12:33;9.00;96.30
66013;DHT22;52783;50.502;8.190;2022-12-29T16:15:04;9.00;96.20
66013;DHT22;52783;50.502;8.190;2022-12-29T16:17:36;9.00;96.60
66013;DHT22;52783;50.502;8.190;2022-12-29T16:20:19;8.90;96.80
66013;DHT22;52783;50.502;8.190;2022-12-29T16:22:50;8.90;97.00
66013;DHT22;52783;50.502;8.190;2022-12-29T16:25:55;8.90;97.00
66013;DHT22;52783;50.502;8.190;2022-12-29T16:28:24;8.90;97.20
66013;DHT22;52783;50.502;8.190;2022-12-29T16:31:20;8.80;97.30
66013;DHT22;52783;50.502;8.190;2022-12-29T16:33:51;8.80;97.80
66013;DHT22;52783;50.502;8.190;2022-12-29T16:38:49;8.70;98.40
66013;DHT22;52783;50.502;8.190;2022-12-29T16:41:31;8.70;98.60
66013;DHT22;52783;50.502;8.190;2022-12-29T16:44:25;8.60;99.00
66013;DHT22;52783;50.502;8.190;2022-12-29T16:49:34;8.60;99.90
66013;DHT22;52783;50.502;8.190;2022-12-29T16:52:01;8.50;99.90
66013;DHT22;52783;50.502;8.190;2022-12-29T16:54:36;8.50;99.90
66013;DHT22;52783;50.502;8.190;2022-12-29T16:57:03;8.50;99.90
66013;DHT22;52783;50.502;8.190;2022-12-29T16:59:38;8.50;99.90
66013;DHT22;52783;50.502;8.190;2022-12-29T17:02:15;8.40;99.90
66013;DHT22;52783;50.502;8.190;2022-12-29T17:04:41;8.40;99.90
66013;DHT22;52783;50.502;8.190;2022-12-29T17:07:17;8.40;99.90
66013;DHT22;52783;50.502;8.190;2022-12-29T17:09:43;8.40;99.90
66013;DHT22;52783;50.502;8.190;2022-12-29T17:12:11;8.30;99.90
66013;DHT22;52783;50.502;8.190;2022-12-29T17:14:49;8.30;99.90
66013;DHT22;52783;50.502;8.190;2022-12-29T17:17:31;8.30;99.80
66013;DHT22;52783;50.502;8.190;2022-12-29T17:20:02;8.30;99.90
66013;DHT22;52783;50.502;8.190;2022-12-29T17:22:29;8.30;99.90
66013;DHT22;52783;50.502;8.190;2022-12-29T17:24:57;8.30;99.80
66013;DHT22;52783;50.502;8.190;2022-12-29T17:29:53;8.20;99.90
66013;DHT22;52783;50.502;8.190;2022-12-29T17:32:19;8.20;99.90
66013;DHT22;52783;50.502;8.190;2022-12-29T17:34:45;8.20;99.90
66013;DHT22;52783;50.502;8.190;2022-12-29T17:39:48;8.20;99.90
66013;DHT22;52783;50.502;8.190;2022-12-29T17:42:14;8.20;99.90
66013;DHT22;52783;50.502;8.190;2022-12-29T17:44:41;8.10;99.90
66013;DHT22;52783;50.502;8.190;2022-12-29T17:47:10;8.10;99.90
66013;DHT22;52783;50.502;8.190;2022-12-29T17:49:36;8.20;99.90
66013;DHT22;52783;50.502;8.190;2022-12-29T17:52:01;8.20;99.90
66013;DHT22;52783;50.502;8.190;2022-12-29T17:54:27;8.20;99.90
66013;DHT22;52783;50.502;8.190;2022-12-29T17:56:53;8.20;99.90
66013;DHT22;52783;50.502;8.190;2022-12-29T17:59:18;8.30;99.90
66013;DHT22;52783;50.502;8.190;2022-12-29T18:01:46;8.30;99.90
66013;DHT22;52783;50.502;8.190;2022-12-29T18:04:13;8.20;99.90
66013;DHT22;52783;50.502;8.190;2022-12-29T18:06:40;8.20;99.90
66013;DHT22;52783;50.502;8.190;2022-12-29T18:09:06;8.10;99.90
66013;DHT22;52783;50.502;8.190;2022-12-29T18:11:40;8.10;99.90
66013;DHT22;52783;50.502;8.190;2022-12-29T18:14:14;8.10;99.90